Terminal Aerodrome Forecast
Issued by NWS Charleston, WV

Home | Current Version | Previous Version | Text Only | Print | Product List | Glossary On
Versions: 1 2 3 4 5 6 7 8 9 10 11 12 13 14 15 16 17 18 19 20 21 22 23 24 25 26 27 28 29 30
000
FTUS41 KRLX 060539
TAFCRW
TAF
KCRW 060539Z 0606/0706 00000KT 4SM BR BKN001
     FM060800 00000KT 2SM BR BKN001
     FM061400 25004KT 4SM SHRA BR BKN008
     FM061600 26004KT P6SM VCTS BKN015CB
     FM062300 22003KT P6SM BKN025
     FM070200 VRB03KT 6SM BR BKN035
     FM070400 00000KT 5SM BR SCT040=

USA.gov is the U.S. government's official web portal to all federal, state and local government web resources and services.